Machynlleth, United Kingdom
Current Conditions -  °F | °C
As of 1:50 PM on Wednesday 28 Jan 2015 (Local Time) from EGOS Reporting Station
Few Clouds Few Clouds  
Wind Chill: 31°   Ceiling: Unl
Heat Index: 41°   Visibility: 6mi
Dew Point: 27°   Wind: 25mph
Humidity: 57%   Direction: 270°W
Pressure: 29.53"   Gusts: 40mph
Location:  52.59°N, 3.85°W
Report Text: EGOS 281350Z 27022G35KT 9999 FEW028 05/M03 Q1000 BLU NOSIG
Loading
Personal Weather Stations






























Interactive Weather Map New forecast layout! Learn more

10-Day Weather Forecast

Advertisements
Track Severe Weather on mobile